Time;durP1;ratioP1;P1;durP2;ratioP2;P2;SDS_P1;SDS_P2;PMS_P1;PMS_P2;Temp;Humidity;BMP_temperature;BMP_pressure;BME280_temperature;BME280_humidity;BME280_pressure;Samples;Min_cycle;Max_cycle;Signal;HPM_P1;HPM_P2
2022/02/28 00:01:22;;;;;;;0.77;0.28;;;1.50;79.60;;;;;;5097972;28;20401;-74
2022/02/28 00:03:50;;;;;;;0.75;0.50;;;1.50;79.70;;;;;;5098249;28;20035;-74
2022/02/28 00:06:16;;;;;;;0.30;0.30;;;1.50;79.70;;;;;;5097003;28;20048;-73
2022/02/28 00:08:42;;;;;;;0.80;0.50;;;1.50;79.60;;;;;;5079982;28;20043;-72
2022/02/28 00:11:07;;;;;;;0.90;0.40;;;1.50;79.70;;;;;;5115474;28;20123;-73
2022/02/28 00:13:33;;;;;;;0.35;0.35;;;1.40;79.70;;;;;;5079405;28;20378;-73
2022/02/28 00:15:59;;;;;;;0.65;0.30;;;1.40;79.80;;;;;;5096699;28;20043;-74
2022/02/28 00:18:25;;;;;;;0.47;0.45;;;1.40;79.80;;;;;;5080191;28;20042;-74
2022/02/28 00:20:51;;;;;;;0.80;0.50;;;1.40;79.80;;;;;;5096706;28;20047;-74
2022/02/28 00:23:17;;;;;;;0.70;0.40;;;1.30;79.90;;;;;;5096812;28;20047;-74
2022/02/28 00:25:43;;;;;;;0.98;0.50;;;1.30;79.90;;;;;;5096996;28;20048;-74
2022/02/28 00:28:08;;;;;;;0.80;0.50;;;1.40;79.90;;;;;;5079515;28;20495;-74
2022/02/28 00:30:35;;;;;;;0.85;0.40;;;1.30;79.90;;;;;;5096504;28;20150;-74
2022/02/28 00:33:02;;;;;;;0.90;0.38;;;1.20;79.90;;;;;;5096673;28;20063;-74
2022/02/28 00:35:28;;;;;;;0.52;0.32;;;1.30;80.00;;;;;;5079564;28;20036;-74
2022/02/28 00:37:54;;;;;;;1.10;0.40;;;1.20;80.00;;;;;;5079357;28;20506;-75
2022/02/28 00:40:19;;;;;;;1.35;0.60;;;1.20;80.10;;;;;;5096330;28;20096;-74
2022/02/28 00:42:45;;;;;;;0.38;0.38;;;1.20;80.10;;;;;;5096294;28;20036;-74
2022/02/28 00:45:11;;;;;;;1.02;0.70;;;1.20;80.10;;;;;;5096354;28;20123;-74
2022/02/28 00:47:36;;;;;;;0.95;0.60;;;1.30;80.10;;;;;;5096270;28;20075;-74
2022/02/28 00:50:04;;;;;;;0.55;0.40;;;1.10;80.00;;;;;;5079740;28;20126;-74
2022/02/28 00:52:30;;;;;;;0.40;0.30;;;1.10;80.10;;;;;;5079592;28;20039;-75
2022/02/28 00:54:55;;;;;;;0.20;0.20;;;1.10;80.20;;;;;;5062559;28;20389;-74
2022/02/28 00:57:21;;;;;;;0.40;0.25;;;1.10;80.20;;;;;;5096099;28;20050;-73
2022/02/28 00:59:47;;;;;;;0.43;0.40;;;1.10;80.20;;;;;;5096403;28;20054;-74
2022/02/28 01:02:13;;;;;;;0.40;0.30;;;1.10;80.30;;;;;;5114124;28;20035;-73
2022/02/28 01:04:39;;;;;;;1.30;0.50;;;1.10;80.30;;;;;;5095672;28;20081;-74
2022/02/28 01:07:05;;;;;;;0.50;0.40;;;1.00;80.30;;;;;;5113851;28;20035;-73
2022/02/28 01:09:32;;;;;;;0.60;0.40;;;1.10;80.40;;;;;;5095779;28;20466;-73
2022/02/28 01:11:58;;;;;;;0.50;0.40;;;1.00;80.30;;;;;;5095750;28;20038;-74
2022/02/28 01:14:23;;;;;;;0.70;0.40;;;1.00;80.30;;;;;;5078887;28;20104;-75
2022/02/28 01:16:49;;;;;;;1.35;0.60;;;1.00;80.40;;;;;;5095599;28;20036;-73
2022/02/28 01:19:15;;;;;;;0.55;0.30;;;1.00;80.40;;;;;;5095416;28;20312;-73
2022/02/28 01:21:41;;;;;;;0.50;0.47;;;1.00;80.30;;;;;;5061858;28;20075;-74
2022/02/28 01:24:07;;;;;;;0.30;0.30;;;0.90;80.40;;;;;;5060832;28;20039;-73
2022/02/28 01:26:34;;;;;;;0.77;0.40;;;1.00;80.40;;;;;;5095545;28;20163;-73
2022/02/28 01:29:00;;;;;;;0.55;0.30;;;0.90;80.50;;;;;;5095454;28;20040;-72
2022/02/28 01:31:25;;;;;;;0.60;0.50;;;0.80;80.40;;;;;;5095750;28;20059;-73
2022/02/28 01:33:51;;;;;;;0.65;0.40;;;0.90;80.60;;;;;;5114275;28;20043;-73
2022/02/28 01:36:17;;;;;;;0.30;0.30;;;0.80;80.60;;;;;;5078786;28;20039;-73
2022/02/28 01:38:42;;;;;;;0.55;0.32;;;0.80;80.70;;;;;;5061926;28;20051;-73
2022/02/28 01:41:08;;;;;;;0.93;0.50;;;0.80;80.70;;;;;;5078519;28;20438;-74
2022/02/28 01:43:34;;;;;;;0.30;0.30;;;0.80;80.70;;;;;;5095404;28;20402;-73
2022/02/28 01:46:00;;;;;;;0.50;0.40;;;0.80;80.70;;;;;;5078423;28;20374;-73
2022/02/28 01:48:25;;;;;;;0.45;0.40;;;0.80;80.70;;;;;;5095103;28;20489;-73
2022/02/28 01:50:51;;;;;;;0.55;0.40;;;0.80;80.70;;;;;;5078243;28;20122;-73
2022/02/28 01:53:19;;;;;;;1.45;0.30;;;0.70;80.70;;;;;;5095064;28;20581;-74
2022/02/28 01:55:45;;;;;;;0.98;0.30;;;0.70;80.80;;;;;;5095112;28;20043;-75
2022/02/28 01:58:11;;;;;;;0.50;0.32;;;0.70;80.80;;;;;;5095066;28;20039;-74
2022/02/28 02:00:36;;;;;;;0.50;0.50;;;0.70;80.80;;;;;;5095146;28;20040;-73
2022/02/28 02:03:03;;;;;;;0.50;0.30;;;0.70;80.90;;;;;;5095438;28;20078;-74
2022/02/28 02:05:29;;;;;;;0.35;0.35;;;0.70;80.90;;;;;;5078596;28;20047;-73
2022/02/28 02:07:55;;;;;;;0.63;0.40;;;0.70;80.80;;;;;;5078469;28;20039;-73
2022/02/28 02:10:25;;;;;;;0.93;0.40;;;0.70;80.80;;;;;;5094973;28;20031;-74
2022/02/28 02:12:52;;;;;;;0.90;0.55;;;0.70;80.90;;;;;;5111394;28;20028;-75
2022/02/28 02:15:18;;;;;;;0.90;0.30;;;0.70;80.90;;;;;;5077546;28;20040;-74
2022/02/28 02:17:44;;;;;;;0.35;0.35;;;0.70;80.90;;;;;;5078012;28;20041;-75
2022/02/28 02:20:30;;;;;;;0.50;0.40;;;0.70;80.90;;;;;;5078350;28;20078;-74
2022/02/28 02:22:58;;;;;;;0.52;0.30;;;0.70;80.80;;;;;;5080773;28;20043;-73
2022/02/28 02:25:24;;;;;;;1.27;0.40;;;0.70;80.80;;;;;;5112969;28;20031;-74
2022/02/28 02:27:50;;;;;;;0.22;0.22;;;0.70;80.80;;;;;;5061028;28;20067;-73
2022/02/28 02:30:15;;;;;;;0.88;0.40;;;0.60;80.80;;;;;;5113248;28;20044;-73
2022/02/28 02:32:42;;;;;;;0.57;0.20;;;0.70;80.90;;;;;;5112612;28;20038;-75
2022/02/28 02:35:08;;;;;;;0.90;0.40;;;0.70;80.90;;;;;;5077239;28;20038;-75
2022/02/28 02:37:34;;;;;;;0.30;0.30;;;0.60;80.90;;;;;;5094776;28;20051;-75
2022/02/28 02:40:01;;;;;;;0.50;0.30;;;0.60;80.90;;;;;;5077565;28;20039;-73
2022/02/28 02:42:27;;;;;;;0.30;0.20;;;0.60;81.00;;;;;;5061295;28;20404;-74
2022/02/28 02:44:52;;;;;;;0.40;0.40;;;0.70;81.10;;;;;;5094739;28;20038;-73
2022/02/28 02:47:18;;;;;;;1.02;0.30;;;0.60;81.00;;;;;;5094274;28;20485;-74
2022/02/28 02:49:44;;;;;;;0.30;0.30;;;0.60;81.10;;;;;;5112959;28;20036;-73
2022/02/28 02:52:10;;;;;;;0.50;0.20;;;0.50;81.10;;;;;;5112577;28;20123;-74
2022/02/28 02:54:35;;;;;;;0.40;0.30;;;0.60;81.20;;;;;;5112645;28;20447;-73
2022/02/28 02:57:01;;;;;;;0.82;0.40;;;0.50;81.10;;;;;;5094237;28;20100;-73
2022/02/28 02:59:27;;;;;;;0.30;0.20;;;0.40;81.10;;;;;;5112407;28;20110;-73
2022/02/28 03:01:52;;;;;;;0.30;0.30;;;0.50;81.20;;;;;;5094100;28;20078;-74
2022/02/28 03:04:18;;;;;;;0.47;0.32;;;0.50;81.30;;;;;;5112281;28;20077;-73
2022/02/28 03:06:44;;;;;;;0.40;0.40;;;0.40;81.20;;;;;;5112273;28;20040;-73
2022/02/28 03:09:12;;;;;;;0.65;0.30;;;0.50;81.30;;;;;;5093967;28;20082;-73
2022/02/28 03:11:39;;;;;;;0.60;0.40;;;0.50;81.30;;;;;;5112203;28;20042;-73
2022/02/28 03:14:05;;;;;;;0.32;0.20;;;0.50;81.30;;;;;;5093938;28;20036;-73
2022/02/28 03:16:31;;;;;;;0.77;0.32;;;0.50;81.40;;;;;;5093876;28;20054;-73
2022/02/28 03:18:57;;;;;;;0.20;0.20;;;0.50;81.30;;;;;;5112615;28;20067;-73
2022/02/28 03:21:22;;;;;;;0.57;0.35;;;0.50;81.40;;;;;;5094015;28;20055;-74
2022/02/28 03:23:48;;;;;;;0.45;0.30;;;0.50;81.40;;;;;;5093843;28;20088;-73
2022/02/28 03:26:14;;;;;;;0.65;0.43;;;0.40;81.30;;;;;;5094043;28;20405;-73
2022/02/28 03:28:39;;;;;;;0.20;0.20;;;0.40;81.30;;;;;;5060190;28;20558;-73
2022/02/28 03:31:05;;;;;;;0.63;0.40;;;0.40;81.40;;;;;;5111996;28;20546;-73
2022/02/28 03:33:31;;;;;;;0.77;0.45;;;0.50;81.50;;;;;;5093826;28;20126;-73
2022/02/28 03:35:57;;;;;;;0.15;0.10;;;0.40;81.40;;;;;;5112502;28;20032;-73
2022/02/28 03:38:22;;;;;;;0.30;0.30;;;0.40;81.40;;;;;;5093959;28;20059;-73
2022/02/28 03:40:48;;;;;;;1.02;0.50;;;0.40;81.40;;;;;;5112411;28;20036;-73
2022/02/28 03:43:15;;;;;;;0.30;0.30;;;0.40;81.50;;;;;;5112274;28;20516;-74
2022/02/28 03:45:41;;;;;;;0.40;0.35;;;0.30;81.50;;;;;;5060037;28;20122;-73
2022/02/28 03:48:06;;;;;;;0.20;0.20;;;0.30;81.50;;;;;;5096398;28;20541;-73
2022/02/28 03:50:32;;;;;;;0.68;0.40;;;0.40;81.60;;;;;;5115437;28;20040;-74
2022/02/28 03:52:58;;;;;;;0.82;0.40;;;0.30;81.60;;;;;;5115327;28;20059;-74
2022/02/28 03:55:23;;;;;;;0.50;0.40;;;0.30;81.70;;;;;;5115211;28;20146;-73
2022/02/28 03:57:49;;;;;;;0.50;0.28;;;0.30;81.70;;;;;;5115083;28;20438;-73
2022/02/28 04:00:15;;;;;;;0.70;0.28;;;0.30;81.70;;;;;;5097412;28;20134;-74
2022/02/28 04:02:41;;;;;;;0.43;0.20;;;0.20;81.70;;;;;;5114976;28;20488;-74
2022/02/28 04:05:08;;;;;;;0.28;0.22;;;0.20;81.70;;;;;;5115016;28;20042;-73
2022/02/28 04:07:34;;;;;;;0.40;0.28;;;0.20;81.80;;;;;;5080600;28;20496;-73
2022/02/28 04:10:01;;;;;;;0.43;0.25;;;0.20;82.00;;;;;;5096937;28;20044;-73
2022/02/28 04:12:26;;;;;;;0.20;0.20;;;0.00;82.00;;;;;;5115599;28;20527;-73
2022/02/28 04:14:52;;;;;;;0.52;0.20;;;0.00;82.10;;;;;;5063800;28;20130;-74
2022/02/28 04:17:18;;;;;;;0.45;0.20;;;-0.10;82.20;;;;;;5096923;28;20405;-73
2022/02/28 04:19:44;;;;;;;0.22;0.20;;;-0.10;82.20;;;;;;5096581;28;20508;-74
2022/02/28 04:22:10;;;;;;;0.63;0.30;;;-0.10;82.30;;;;;;5096472;28;20051;-73
2022/02/28 04:24:36;;;;;;;0.52;0.32;;;-0.10;82.40;;;;;;5096600;28;20054;-73
2022/02/28 04:27:02;;;;;;;0.25;0.22;;;-0.20;82.50;;;;;;5079664;28;20039;-73
2022/02/28 04:29:28;;;;;;;0.68;0.38;;;-0.20;82.50;;;;;;5079670;28;20048;-73
2022/02/28 04:31:53;;;;;;;0.88;0.40;;;-0.20;82.50;;;;;;5114717;28;20089;-73
2022/02/28 04:34:19;;;;;;;0.30;0.30;;;-0.20;82.60;;;;;;5115027;28;20032;-73
2022/02/28 04:36:45;;;;;;;0.32;0.22;;;-0.20;82.50;;;;;;5114563;28;20044;-73
2022/02/28 04:39:10;;;;;;;0.43;0.13;;;-0.20;82.50;;;;;;5114944;28;20040;-73
2022/02/28 04:41:36;;;;;;;0.30;0.30;;;-0.20;82.50;;;;;;5096418;28;20489;-73
2022/02/28 04:44:03;;;;;;;0.63;0.30;;;-0.20;82.50;;;;;;5114648;28;20039;-73
2022/02/28 04:46:28;;;;;;;0.40;0.40;;;-0.30;82.60;;;;;;5114297;28;20035;-74
2022/02/28 04:48:54;;;;;;;0.75;0.45;;;-0.30;82.60;;;;;;5096247;28;20108;-73
2022/02/28 04:51:20;;;;;;;0.70;0.30;;;-0.30;82.60;;;;;;5096229;28;20031;-74
2022/02/28 04:53:45;;;;;;;0.30;0.30;;;-0.30;82.60;;;;;;5114729;28;20118;-73
2022/02/28 04:56:11;;;;;;;0.90;0.40;;;-0.30;82.70;;;;;;5114614;28;20590;-74
2022/02/28 04:58:37;;;;;;;0.70;0.40;;;-0.40;82.60;;;;;;5114725;28;20048;-74
2022/02/28 05:01:02;;;;;;;0.17;0.17;;;-0.40;82.70;;;;;;5096380;28;20109;-74
2022/02/28 05:03:28;;;;;;;0.43;0.20;;;-0.40;82.70;;;;;;5079306;28;20134;-73
2022/02/28 05:05:54;;;;;;;0.70;0.30;;;-0.40;82.70;;;;;;5114753;28;20093;-73
2022/02/28 05:08:20;;;;;;;0.55;0.38;;;-0.40;82.70;;;;;;5114470;28;20062;-74
2022/02/28 05:10:45;;;;;;;0.20;0.20;;;-0.30;82.80;;;;;;5096082;28;20035;-73
2022/02/28 05:13:12;;;;;;;0.45;0.30;;;-0.40;82.70;;;;;;5096490;28;20059;-73
2022/02/28 05:15:38;;;;;;;0.95;0.30;;;-0.40;82.70;;;;;;5114320;28;20039;-74
2022/02/28 05:18:03;;;;;;;0.90;0.43;;;-0.40;82.70;;;;;;5114655;28;20040;-73
2022/02/28 05:20:29;;;;;;;0.55;0.30;;;-0.40;82.70;;;;;;5114638;28;20032;-73
2022/02/28 05:22:55;;;;;;;0.32;0.32;;;-0.40;82.80;;;;;;5114201;28;20077;-73
2022/02/28 05:25:21;;;;;;;0.32;0.32;;;-0.50;82.80;;;;;;5114239;28;20450;-74
2022/02/28 05:27:47;;;;;;;0.98;0.30;;;-0.50;82.80;;;;;;5113872;28;20134;-73
2022/02/28 05:30:14;;;;;;;0.57;0.43;;;-0.50;82.80;;;;;;5113989;28;20031;-73
2022/02/28 05:32:41;;;;;;;0.45;0.40;;;-0.40;82.90;;;;;;5079816;28;20035;-73
2022/02/28 05:35:10;;;;;;;0.57;0.30;;;-0.50;82.90;;;;;;5095791;28;20453;-72
2022/02/28 05:37:36;;;;;;;0.60;0.35;;;-0.50;82.90;;;;;;5078759;28;20043;-73
2022/02/28 05:40:02;;;;;;;1.10;0.50;;;-0.50;82.90;;;;;;5114466;28;20047;-72
2022/02/28 05:42:28;;;;;;;0.40;0.40;;;-0.60;82.90;;;;;;5078815;28;20063;-73
2022/02/28 05:44:54;;;;;;;0.20;0.20;;;-0.60;83.00;;;;;;5095917;28;20093;-73
2022/02/28 05:47:19;;;;;;;0.63;0.30;;;-0.60;83.00;;;;;;5113830;28;20434;-74
2022/02/28 05:49:45;;;;;;;0.13;0.10;;;-0.70;83.00;;;;;;5095551;28;20389;-74
2022/02/28 05:52:11;;;;;;;0.30;0.20;;;-0.70;83.10;;;;;;5078507;28;20039;-74
2022/02/28 05:54:37;;;;;;;0.20;0.20;;;-0.60;83.30;;;;;;5095225;28;20488;-74
2022/02/28 05:57:04;;;;;;;0.88;0.30;;;-0.70;83.20;;;;;;5113983;28;20531;-74
2022/02/28 05:59:30;;;;;;;0.30;0.20;;;-0.70;83.30;;;;;;5113598;28;20046;-74
2022/02/28 06:01:56;;;;;;;0.13;0.13;;;-0.80;83.30;;;;;;5113387;28;20043;-74
2022/02/28 06:04:21;;;;;;;0.57;0.40;;;-0.80;83.40;;;;;;5095099;28;20043;-73
2022/02/28 06:06:47;;;;;;;1.02;0.40;;;-0.80;83.50;;;;;;5095194;28;20207;-74
2022/02/28 06:09:13;;;;;;;0.20;0.20;;;-0.80;83.50;;;;;;5077940;28;20055;-74
2022/02/28 06:11:38;;;;;;;0.73;0.40;;;-0.90;83.40;;;;;;5113154;28;20042;-75
2022/02/28 06:14:04;;;;;;;0.20;0.20;;;-0.90;83.50;;;;;;5078432;28;20043;-75
2022/02/28 06:16:30;;;;;;;0.35;0.20;;;-0.90;83.60;;;;;;5061456;28;20039;-74
2022/02/28 06:18:56;;;;;;;0.65;0.38;;;-0.90;83.60;;;;;;5113693;28;20057;-75
2022/02/28 06:21:22;;;;;;;0.90;0.47;;;-0.90;83.60;;;;;;5095802;28;20048;-76
2022/02/28 06:23:48;;;;;;;0.55;0.30;;;-0.90;83.60;;;;;;5113764;28;20039;-73
2022/02/28 06:26:13;;;;;;;0.40;0.40;;;-0.90;83.60;;;;;;5078068;28;20397;-75
2022/02/28 06:28:39;;;;;;;0.28;0.20;;;-1.00;83.60;;;;;;5113258;28;20039;-74
2022/02/28 06:31:06;;;;;;;0.40;0.30;;;-0.90;83.60;;;;;;5113052;28;20126;-74
2022/02/28 06:33:32;;;;;;;0.82;0.30;;;-1.00;83.60;;;;;;5078070;28;20549;-74
2022/02/28 06:35:59;;;;;;;0.47;0.30;;;-0.90;83.60;;;;;;5113221;28;20063;-72
2022/02/28 06:38:26;;;;;;;0.10;0.10;;;-0.90;83.60;;;;;;5078126;28;20036;-74
2022/02/28 06:40:52;;;;;;;0.63;0.35;;;-0.90;83.60;;;;;;5095020;28;20037;-73
2022/02/28 06:43:21;;;;;;;0.40;0.32;;;-1.00;83.60;;;;;;5075783;28;20083;-73
2022/02/28 06:45:48;;;;;;;0.95;0.43;;;-0.90;83.60;;;;;;5094638;28;20043;-73
2022/02/28 06:48:15;;;;;;;0.52;0.28;;;-0.90;83.60;;;;;;5094353;28;20075;-73
2022/02/28 06:50:42;;;;;;;0.45;0.32;;;-0.90;83.60;;;;;;5112880;28;20043;-73
2022/02/28 06:53:08;;;;;;;0.32;0.30;;;-0.90;83.60;;;;;;5094636;28;20400;-73
2022/02/28 06:55:34;;;;;;;1.02;0.20;;;-0.90;83.50;;;;;;5077425;28;20040;-74
2022/02/28 06:58:00;;;;;;;0.32;0.20;;;-0.80;83.50;;;;;;5112619;28;20374;-75
2022/02/28 07:00:26;;;;;;;0.20;0.20;;;-0.80;83.50;;;;;;5112540;28;20043;-75
2022/02/28 07:02:51;;;;;;;0.57;0.22;;;-0.80;83.40;;;;;;5112900;28;20055;-74
2022/02/28 07:05:17;;;;;;;0.63;0.30;;;-0.80;83.30;;;;;;5060972;28;20047;-75
2022/02/28 07:07:43;;;;;;;0.40;0.30;;;-0.70;83.40;;;;;;5077584;28;20039;-74
2022/02/28 07:10:10;;;;;;;0.20;0.20;;;-0.70;83.90;;;;;;5094128;28;20040;-74
2022/02/28 07:12:36;;;;;;;0.47;0.30;;;-0.70;83.30;;;;;;5112408;28;20485;-74
2022/02/28 07:15:03;;;;;;;0.20;0.20;;;-0.60;83.30;;;;;;5094821;28;20038;-75
2022/02/28 07:17:29;;;;;;;0.63;0.30;;;-0.60;83.20;;;;;;5112858;28;20051;-75
2022/02/28 07:19:55;;;;;;;0.30;0.30;;;-0.60;83.20;;;;;;5060773;28;20393;-74
2022/02/28 07:22:21;;;;;;;0.98;0.40;;;-0.60;83.10;;;;;;5113609;28;20040;-74
2022/02/28 07:24:46;;;;;;;0.20;0.20;;;-0.50;83.10;;;;;;5080929;28;20043;-74
2022/02/28 07:27:13;;;;;;;0.32;0.30;;;-0.40;83.10;;;;;;5097677;28;20040;-74
2022/02/28 07:29:39;;;;;;;0.63;0.43;;;-0.30;83.10;;;;;;5097789;28;20409;-74
2022/02/28 07:32:05;;;;;;;0.35;0.32;;;-0.30;82.80;;;;;;5115856;28;20040;-74
2022/02/28 07:34:31;;;;;;;0.30;0.30;;;-0.10;82.80;;;;;;5097576;28;20181;-74
2022/02/28 07:36:56;;;;;;;0.88;0.50;;;-0.10;82.60;;;;;;5115815;28;20123;-74
2022/02/28 07:39:22;;;;;;;0.80;0.32;;;0.00;82.50;;;;;;5115771;28;20065;-74
2022/02/28 07:41:48;;;;;;;0.50;0.40;;;0.10;82.40;;;;;;5116202;28;20047;-74
2022/02/28 07:44:14;;;;;;;1.00;0.30;;;0.20;82.30;;;;;;5115754;28;20047;-74
2022/02/28 07:46:40;;;;;;;0.63;0.32;;;0.30;82.10;;;;;;5115802;28;20574;-73
2022/02/28 07:49:06;;;;;;;0.63;0.30;;;0.40;82.00;;;;;;5097525;28;20047;-74
2022/02/28 07:51:32;;;;;;;0.70;0.38;;;0.50;81.80;;;;;;5097402;28;20114;-73
2022/02/28 07:53:58;;;;;;;0.40;0.40;;;0.60;81.70;;;;;;5097238;28;20047;-73
2022/02/28 07:56:25;;;;;;;0.80;0.30;;;0.80;81.70;;;;;;5080263;28;20046;-74
2022/02/28 07:58:51;;;;;;;0.40;0.30;;;0.90;81.50;;;;;;5115936;28;20044;-73
2022/02/28 08:01:17;;;;;;;1.13;0.40;;;1.10;81.40;;;;;;5115606;28;20396;-73
2022/02/28 08:03:43;;;;;;;0.30;0.30;;;1.20;81.20;;;;;;5115449;28;20061;-73
2022/02/28 08:06:09;;;;;;;0.50;0.30;;;1.40;81.00;;;;;;5097092;28;20157;-73
2022/02/28 08:08:35;;;;;;;0.30;0.30;;;1.60;80.90;;;;;;5115281;28;20063;-73
2022/02/28 08:11:01;;;;;;;0.30;0.30;;;1.60;80.70;;;;;;5097381;28;20035;-73
2022/02/28 08:13:27;;;;;;;0.20;0.20;;;1.70;80.50;;;;;;5097091;28;20545;-73
2022/02/28 08:15:53;;;;;;;0.45;0.32;;;1.80;80.40;;;;;;5115508;28;20134;-73
2022/02/28 08:18:19;;;;;;;1.13;0.50;;;2.00;80.40;;;;;;5115456;28;20126;-73
2022/02/28 08:20:45;;;;;;;1.20;0.50;;;2.10;80.30;;;;;;5096937;28;20491;-73
2022/02/28 08:23:11;;;;;;;0.55;0.38;;;2.20;80.20;;;;;;5115535;28;20051;-73
2022/02/28 08:25:37;;;;;;;0.93;0.45;;;2.40;80.20;;;;;;5115468;28;20039;-73
2022/02/28 08:28:03;;;;;;;0.22;0.22;;;2.50;80.10;;;;;;5096493;28;20042;-73
2022/02/28 08:30:29;;;;;;;0.45;0.40;;;2.60;80.00;;;;;;5115391;28;20036;-74
2022/02/28 08:32:54;;;;;;;1.10;0.60;;;2.70;80.00;;;;;;5096262;28;20044;-73
2022/02/28 08:35:21;;;;;;;0.43;0.30;;;2.80;80.00;;;;;;5114919;28;20063;-73
2022/02/28 08:37:47;;;;;;;0.73;0.52;;;2.90;79.80;;;;;;5114932;28;20043;-74
2022/02/28 08:40:13;;;;;;;0.70;0.60;;;3.00;79.70;;;;;;5114918;28;20047;-73
2022/02/28 08:42:39;;;;;;;0.70;0.57;;;3.10;79.60;;;;;;5115221;28;20035;-73
2022/02/28 08:45:05;;;;;;;0.40;0.35;;;3.10;79.60;;;;;;5114813;28;20048;-73
2022/02/28 08:47:32;;;;;;;0.88;0.55;;;3.20;79.50;;;;;;5113332;28;20480;-73
2022/02/28 08:50:00;;;;;;;0.50;0.50;;;3.30;79.50;;;;;;5096576;28;20044;-73
2022/02/28 08:52:26;;;;;;;1.08;0.65;;;3.40;79.50;;;;;;5115229;28;20880;-74
2022/02/28 08:54:52;;;;;;;0.80;0.60;;;3.40;79.40;;;;;;5115000;28;20505;-73
2022/02/28 08:57:20;;;;;;;0.95;0.68;;;3.50;79.40;;;;;;5115026;28;20031;-72
2022/02/28 08:59:45;;;;;;;1.67;0.90;;;3.60;79.40;;;;;;5114488;28;20164;-74
2022/02/28 09:02:11;;;;;;;1.40;0.73;;;3.60;79.30;;;;;;5096194;28;20089;-74
2022/02/28 09:04:37;;;;;;;0.80;0.68;;;3.70;79.30;;;;;;5096150;28;20479;-73
2022/02/28 09:07:03;;;;;;;0.50;0.50;;;3.70;79.10;;;;;;5096834;28;20047;-75
2022/02/28 09:09:29;;;;;;;0.70;0.50;;;3.80;79.10;;;;;;5079229;28;20393;-75
2022/02/28 09:11:55;;;;;;;1.52;0.63;;;3.90;79.10;;;;;;5114331;28;20085;-74
2022/02/28 09:14:21;;;;;;;1.38;0.70;;;4.00;79.10;;;;;;5079782;28;20036;-75
2022/02/28 09:16:47;;;;;;;2.03;0.75;;;4.10;79.10;;;;;;5062524;28;20039;-74
2022/02/28 09:19:12;;;;;;;0.50;0.40;;;4.20;79.00;;;;;;5079382;28;20500;-73
2022/02/28 09:21:39;;;;;;;1.65;1.00;;;4.20;78.90;;;;;;5078855;28;20076;-73
2022/02/28 09:24:05;;;;;;;1.20;0.68;;;4.20;78.70;;;;;;5114085;28;20039;-73
2022/02/28 09:26:31;;;;;;;1.35;0.90;;;4.30;78.70;;;;;;5095672;28;20501;-74
2022/02/28 09:28:58;;;;;;;1.60;0.80;;;4.40;78.70;;;;;;5096152;28;20050;-74
2022/02/28 09:31:29;;;;;;;1.33;0.70;;;4.50;78.70;;;;;;5096238;28;20048;-74
2022/02/28 09:33:55;;;;;;;1.40;1.00;;;4.50;78.60;;;;;;5112893;28;20065;-74
2022/02/28 09:36:21;;;;;;;1.08;0.60;;;4.60;78.50;;;;;;5112123;28;20043;-74
2022/02/28 09:38:46;;;;;;;1.27;0.70;;;4.60;78.50;;;;;;5078791;28;20031;-73
2022/02/28 09:41:14;;;;;;;1.75;0.90;;;4.70;78.40;;;;;;5096143;28;20485;-73
2022/02/28 09:43:41;;;;;;;2.13;0.77;;;4.70;78.30;;;;;;5114214;28;20058;-73
2022/02/28 09:46:07;;;;;;;0.88;0.52;;;4.70;78.20;;;;;;5077754;28;20493;-73
2022/02/28 09:48:33;;;;;;;1.20;0.68;;;4.90;78.30;;;;;;5113673;28;20039;-73
2022/02/28 09:50:59;;;;;;;1.17;0.75;;;4.90;78.20;;;;;;5061936;28;20042;-73
2022/02/28 09:53:26;;;;;;;1.30;0.80;;;5.00;78.20;;;;;;5095993;28;20046;-74
2022/02/28 09:55:52;;;;;;;1.65;0.88;;;5.10;78.10;;;;;;5062032;28;20112;-74
2022/02/28 09:58:27;;;;;;;1.52;1.00;;;5.20;78.10;;;;;;5095583;28;20643;-73
2022/02/28 10:00:53;;;;;;;1.27;0.82;;;5.20;78.00;;;;;;5095327;28;20044;-73
2022/02/28 10:03:19;;;;;;;1.13;0.65;;;5.30;78.50;;;;;;5113431;28;20035;-72
2022/02/28 10:05:45;;;;;;;1.13;0.85;;;5.30;77.70;;;;;;5078495;28;20138;-72
2022/02/28 10:08:14;;;;;;;1.20;0.80;;;5.40;77.60;;;;;;5113865;28;20039;-73
2022/02/28 10:10:43;;;;;;;1.00;0.68;;;5.40;77.50;;;;;;5111536;28;20027;-73
2022/02/28 10:13:08;;;;;;;2.88;1.05;;;5.50;77.50;;;;;;5078864;28;20047;-74
2022/02/28 10:15:34;;;;;;;1.00;0.80;;;5.50;77.40;;;;;;5113211;28;20051;-74
2022/02/28 10:18:03;;;;;;;1.30;0.90;;;5.50;77.30;;;;;;5094927;28;20051;-74
2022/02/28 10:20:33;;;;;;;1.42;0.93;;;5.60;77.20;;;;;;5113755;28;20032;-74
2022/02/28 10:23:05;;;;;;;2.67;1.00;;;5.60;77.10;;;;;;5111646;28;20043;-75
2022/02/28 10:25:36;;;;;;;1.63;0.90;;;5.70;77.00;;;;;;5113081;28;20071;-74
2022/02/28 10:28:15;;;;;;;2.85;1.10;;;5.70;76.90;;;;;;5078400;28;20073;-74
2022/02/28 10:30:54;;;;;;;1.13;0.85;;;5.90;76.80;;;;;;5113128;28;20035;-74
2022/02/28 10:33:27;;;;;;;0.95;0.68;;;5.80;76.60;;;;;;5094910;28;20035;-74
2022/02/28 10:35:59;;;;;;;1.33;0.98;;;5.90;76.50;;;;;;5113175;28;20035;-74
2022/02/28 10:38:27;;;;;;;0.60;0.60;;;6.00;76.50;;;;;;5113389;28;20118;-73
2022/02/28 10:40:53;;;;;;;1.70;0.90;;;6.00;76.50;;;;;;5112982;28;20051;-73
2022/02/28 10:43:29;;;;;;;1.25;0.77;;;6.10;76.40;;;;;;5094622;28;20043;-72
2022/02/28 10:45:56;;;;;;;1.10;0.70;;;6.10;76.20;;;;;;5094647;28;20035;-73
2022/02/28 10:48:23;;;;;;;0.50;0.50;;;6.30;76.30;;;;;;5112824;28;20496;-73
2022/02/28 10:50:50;;;;;;;1.13;0.73;;;6.30;76.10;;;;;;5094814;28;20508;-74
2022/02/28 10:53:21;;;;;;;1.40;0.80;;;6.40;75.90;;;;;;5113261;28;20039;-72
2022/02/28 10:55:50;;;;;;;1.20;0.77;;;6.50;75.70;;;;;;5112679;28;20044;-74
2022/02/28 10:58:24;;;;;;;0.98;0.85;;;6.60;75.60;;;;;;5094475;28;20047;-73
2022/02/28 11:01:00;;;;;;;1.00;0.77;;;6.60;75.50;;;;;;5094562;28;20047;-73
2022/02/28 11:03:41;;;;;;;1.92;0.95;;;6.70;75.40;;;;;;5094511;28;20043;-73
2022/02/28 11:06:09;;;;;;;1.13;0.80;;;6.70;75.30;;;;;;5112698;28;20043;-73
2022/02/28 11:08:42;;;;;;;1.27;0.75;;;6.90;75.30;;;;;;5112534;28;20036;-73
2022/02/28 11:11:10;;;;;;;0.98;0.60;;;6.90;75.70;;;;;;5112550;28;20073;-74
2022/02/28 11:13:36;;;;;;;0.57;0.57;;;7.00;75.10;;;;;;5112500;28;20039;-74
2022/02/28 11:16:03;;;;;;;1.27;0.70;;;7.00;75.00;;;;;;5094366;28;20046;-73
2022/02/28 11:18:29;;;;;;;1.30;0.85;;;7.00;75.00;;;;;;5112956;28;20427;-74
2022/02/28 11:20:55;;;;;;;0.77;0.60;;;7.10;74.90;;;;;;5094176;28;20126;-73
2022/02/28 11:23:22;;;;;;;1.00;0.82;;;7.20;74.90;;;;;;5112396;28;20409;-73
2022/02/28 11:25:48;;;;;;;1.52;0.80;;;7.10;74.70;;;;;;5094293;28;20040;-74
2022/02/28 11:28:15;;;;;;;1.45;0.90;;;7.20;74.60;;;;;;5112183;28;20067;-73
2022/02/28 11:30:41;;;;;;;0.63;0.60;;;7.30;74.60;;;;;;5094100;28;20438;-73
2022/02/28 11:33:10;;;;;;;0.68;0.50;;;7.40;74.50;;;;;;5112664;28;20044;-73
2022/02/28 11:35:50;;;;;;;1.25;0.80;;;7.40;74.30;;;;;;5092969;28;20040;-73
2022/02/28 11:38:38;;;;;;;2.05;0.80;;;7.60;74.30;;;;;;5094020;28;20556;-73
2022/02/28 11:41:05;;;;;;;1.63;0.77;;;7.60;74.10;;;;;;5080346;28;20048;-73
2022/02/28 11:43:33;;;;;;;1.13;0.77;;;7.70;73.90;;;;;;5112024;28;20035;-73
2022/02/28 11:46:11;;;;;;;1.25;0.77;;;7.70;73.80;;;;;;5112574;28;20078;-73
2022/02/28 11:48:41;;;;;;;1.48;0.80;;;7.80;73.80;;;;;;5092075;28;20509;-73
2022/02/28 11:51:19;;;;;;;0.87;0.70;;;7.90;74.40;;;;;;5110866;28;20115;-73
2022/02/28 11:53:48;;;;;;;1.13;0.77;;;7.90;73.50;;;;;;5078596;28;20063;-73
2022/02/28 11:56:43;;;;;;;2.38;0.80;;;8.00;73.50;;;;;;5093752;28;20058;-72
2022/02/28 11:59:27;;;;;;;2.22;0.90;;;8.00;73.30;;;;;;5098994;28;20046;-73
2022/02/28 12:01:57;;;;;;;0.88;0.60;;;8.20;73.30;;;;;;5110279;28;20044;-73
2022/02/28 12:04:33;;;;;;;1.20;0.80;;;8.30;73.20;;;;;;5093797;28;20032;-72
2022/02/28 12:07:02;;;;;;;1.33;0.90;;;8.30;73.00;;;;;;5111852;28;20055;-72
2022/02/28 12:09:37;;;;;;;2.17;0.93;;;8.40;72.90;;;;;;5096805;28;20381;-73
2022/02/28 12:12:25;;;;;;;0.95;0.73;;;8.60;72.70;;;;;;5097408;28;20038;-73
2022/02/28 12:15:11;;;;;;;0.80;0.50;;;8.60;72.40;;;;;;5095044;28;20409;-73
2022/02/28 12:17:55;;;;;;;0.82;0.55;;;8.70;72.30;;;;;;5100876;28;20516;-73
2022/02/28 12:20:26;;;;;;;1.13;0.70;;;8.90;72.20;;;;;;5115019;28;20067;-73
2022/02/28 12:23:10;;;;;;;0.60;0.60;;;8.90;72.00;;;;;;5097039;28;20039;-72
2022/02/28 12:25:40;;;;;;;0.70;0.65;;;9.10;71.90;;;;;;5096763;28;20039;-73
2022/02/28 12:28:36;;;;;;;1.20;0.90;;;9.10;71.70;;;;;;5114814;28;20138;-73
2022/02/28 12:31:04;;;;;;;1.05;0.85;;;9.30;72.10;;;;;;5099185;28;20043;-73
2022/02/28 12:33:56;;;;;;;1.02;0.70;;;9.50;71.20;;;;;;5115079;28;20046;-73
2022/02/28 12:36:29;;;;;;;1.48;0.77;;;9.50;70.90;;;;;;5114883;28;20054;-73
2022/02/28 12:39:00;;;;;;;1.23;0.82;;;9.60;70.90;;;;;;5081390;28;20127;-73
2022/02/28 12:41:30;;;;;;;0.50;0.50;;;9.70;70.90;;;;;;5115199;28;20035;-73
2022/02/28 12:43:58;;;;;;;1.17;0.70;;;9.90;70.60;;;;;;5096430;28;20425;-73
2022/02/28 12:46:29;;;;;;;1.08;0.80;;;9.90;70.60;;;;;;5079946;28;20176;-73
2022/02/28 12:48:57;;;;;;;1.63;0.80;;;10.00;70.40;;;;;;5094726;28;20116;-73
2022/02/28 12:51:26;;;;;;;1.02;0.70;;;10.00;70.40;;;;;;5096436;28;20477;-73
2022/02/28 12:54:04;;;;;;;0.82;0.80;;;10.10;70.20;;;;;;5097315;28;20039;-74
2022/02/28 12:56:30;;;;;;;1.20;0.70;;;10.20;70.10;;;;;;5096085;28;20036;-73